Time;durP1;ratioP1;P1;durP2;ratioP2;P2;SDS_P1;SDS_P2;PMS_P1;PMS_P2;Temp;Humidity;BMP_temperature;BMP_pressure;BME280_temperature;BME280_humidity;BME280_pressure;Samples;Min_cycle;Max_cycle;Signal;HPM_P1;HPM_P2
2021/01/16 00:01:07;;;;;;;50.23;27.25;;;;;;;-4.29;77.72;96685.95;1820051;77;21258;-77
2021/01/16 00:03:34;;;;;;;54.80;30.70;;;;;;;-4.34;77.64;96689.20;1832715;77;21113;-77
2021/01/16 00:06:01;;;;;;;63.73;33.28;;;;;;;-4.41;77.61;96689.15;1836440;77;21435;-77
2021/01/16 00:08:28;;;;;;;62.10;33.70;;;;;;;-4.44;77.81;96686.78;1811081;77;21999;-77
2021/01/16 00:10:57;;;;;;;55.38;33.80;;;;;;;-4.44;78.02;96680.44;1796255;78;21085;-77
2021/01/16 00:13:26;;;;;;;63.40;31.77;;;;;;;-4.33;78.00;96683.67;1811245;77;21217;-78
2021/01/16 00:15:53;;;;;;;61.30;31.87;;;;;;;-4.28;77.89;96681.70;1822263;77;21113;-77
2021/01/16 00:18:22;;;;;;;56.85;30.88;;;;;;;-4.30;77.85;96678.43;1793677;78;21098;-77
2021/01/16 00:20:50;;;;;;;60.98;32.13;;;;;;;-4.17;77.94;96681.12;1823750;77;21246;-77
2021/01/16 00:23:17;;;;;;;60.78;32.15;;;;;;;-4.08;77.91;96686.94;1857904;77;21069;-78
2021/01/16 00:25:43;;;;;;;65.17;32.78;;;;;;;-4.04;77.67;96682.91;1808256;77;21062;-78
2021/01/16 00:28:28;;;;;;;62.15;33.40;;;;;;;-4.06;77.57;96688.97;1795364;77;21114;-79
2021/01/16 00:30:55;;;;;;;58.92;30.37;;;;;;;-3.99;77.68;96686.45;1819940;77;21093;-79
2021/01/16 00:33:25;;;;;;;60.03;31.12;;;;;;;-4.02;77.43;96684.09;1806013;77;21360;-79
2021/01/16 00:35:52;;;;;;;59.13;31.70;;;;;;;-4.04;77.37;96682.09;1816721;77;21612;-79
2021/01/16 00:38:18;;;;;;;60.60;31.33;;;;;;;-4.09;77.25;96685.31;1841130;77;21106;-79
2021/01/16 00:40:45;;;;;;;61.53;32.95;;;;;;;-4.14;77.29;96686.84;1828013;77;21221;-78
2021/01/16 00:43:13;;;;;;;45.83;23.87;;;;;;;-4.16;77.33;96686.11;1836623;77;21124;-79
2021/01/16 00:45:40;;;;;;;53.17;27.65;;;;;;;-4.20;77.08;96685.10;1818827;77;21325;-79
2021/01/16 00:48:12;;;;;;;49.03;27.95;;;;;;;-4.30;77.16;96683.50;1806434;77;21094;-79
2021/01/16 00:50:39;;;;;;;38.50;23.95;;;;;;;-4.29;77.29;96687.67;1816764;77;21158;-78
2021/01/16 00:53:06;;;;;;;46.80;22.58;;;;;;;-4.31;77.22;96689.03;1816243;77;21122;-78
2021/01/16 00:55:32;;;;;;;50.55;29.65;;;;;;;-4.39;77.13;96684.84;1816953;77;21332;-79
2021/01/16 00:57:58;;;;;;;52.90;28.92;;;;;;;-4.49;77.20;96693.83;1830163;77;21105;-78
2021/01/16 01:00:26;;;;;;;45.85;26.73;;;;;;;-4.50;77.46;96697.72;1821660;77;21235;-79
2021/01/16 01:02:52;;;;;;;46.65;25.70;;;;;;;-4.49;77.37;96694.28;1816718;77;21446;-79
2021/01/16 01:05:20;;;;;;;50.63;27.73;;;;;;;-4.58;77.14;96691.77;1816829;77;21140;-79
2021/01/16 01:07:48;;;;;;;49.63;27.20;;;;;;;-4.58;77.30;96692.59;1801597;77;21104;-79
2021/01/16 01:10:27;;;;;;;45.40;26.45;;;;;;;-4.51;77.49;96686.76;1815674;77;21089;-79
2021/01/16 01:12:53;;;;;;;40.35;25.10;;;;;;;-4.42;77.39;96687.97;1786551;78;21494;-79
2021/01/16 01:15:20;;;;;;;32.55;20.72;;;;;;;-4.43;77.12;96679.53;1812681;77;21393;-79
2021/01/16 01:17:51;;;;;;;48.00;26.97;;;;;;;-4.51;76.62;96679.15;1818469;77;21107;-79
2021/01/16 01:20:18;;;;;;;47.10;26.03;;;;;;;-4.59;76.78;96678.72;1820194;76;21247;-79
2021/01/16 01:22:43;;;;;;;48.28;25.80;;;;;;;-4.72;76.83;96682.80;1840406;76;21199;-79
2021/01/16 01:25:11;;;;;;;51.98;28.25;;;;;;;-4.70;77.22;96695.80;1839647;76;21110;-79
2021/01/16 01:27:37;;;;;;;48.78;30.15;;;;;;;-4.70;77.15;96686.10;1858693;76;21077;-79
2021/01/16 01:30:05;;;;;;;48.48;27.85;;;;;;;-4.67;77.37;96693.55;1843631;76;21073;-79
2021/01/16 01:32:32;;;;;;;51.25;28.62;;;;;;;-4.63;77.39;96692.47;1854176;76;21280;-79
2021/01/16 01:34:58;;;;;;;47.25;29.72;;;;;;;-4.55;77.49;96686.11;1833689;76;21049;-79
2021/01/16 01:37:24;;;;;;;51.68;27.98;;;;;;;-4.63;77.19;96689.48;1834067;76;21226;-79
2021/01/16 01:39:50;;;;;;;42.23;24.92;;;;;;;-4.67;77.17;96687.20;1840652;76;21120;-79
2021/01/16 01:42:19;;;;;;;39.53;25.10;;;;;;;-4.68;77.28;96690.64;1842165;76;22470;-79
2021/01/16 01:44:46;;;;;;;37.45;20.35;;;;;;;-4.65;77.34;96690.47;1843977;76;21277;-79
2021/01/16 01:47:14;;;;;;;40.92;23.30;;;;;;;-4.60;77.05;96685.97;1802836;76;21089;-79
2021/01/16 01:49:40;;;;;;;38.35;21.95;;;;;;;-4.51;77.17;96688.02;1839811;76;21422;-79
2021/01/16 01:52:09;;;;;;;43.68;24.52;;;;;;;-4.43;77.08;96683.34;1844076;76;21089;-80
2021/01/16 01:54:35;;;;;;;39.63;23.45;;;;;;;-4.44;76.81;96685.97;1832100;76;21280;-79
2021/01/16 01:57:03;;;;;;;41.40;21.27;;;;;;;-4.44;76.81;96680.89;1834590;76;21334;-78
2021/01/16 01:59:35;;;;;;;40.10;23.32;;;;;;;-4.41;76.89;96684.08;1843414;76;21106;-79
2021/01/16 02:02:01;;;;;;;;;;;;;;;-4.35;76.91;96680.41;1841757;76;21098;-79
2021/01/16 02:04:30;;;;;;;32.93;20.00;;;;;;;-4.32;76.61;96678.97;1837046;76;20214;-79
2021/01/16 02:07:00;;;;;;;35.30;21.20;;;;;;;-4.31;76.62;96682.69;1844288;76;21307;-78
2021/01/16 02:09:26;;;;;;;32.03;19.73;;;;;;;-4.25;76.70;96684.87;1843985;76;21092;-79
2021/01/16 02:11:56;;;;;;;30.60;16.95;;;;;;;-4.22;76.41;96683.11;1839339;76;21448;-78
2021/01/16 02:14:28;;;;;;;32.73;19.25;;;;;;;-4.24;76.03;96686.52;1835890;76;21371;-78
2021/01/16 02:16:54;;;;;;;30.30;16.42;;;;;;;-4.26;76.16;96678.63;1839367;76;21065;-79
2021/01/16 02:19:42;;;;;;;27.32;16.35;;;;;;;-4.25;76.30;96672.20;1838795;76;21606;-78
2021/01/16 02:22:08;;;;;;;26.97;16.73;;;;;;;-4.22;76.16;96671.23;1830657;76;21102;-77
2021/01/16 02:24:39;;;;;;;25.40;14.83;;;;;;;-4.13;76.07;96668.63;1838227;77;21078;-77
2021/01/16 02:27:39;;;;;;;24.12;15.15;;;;;;;-4.17;75.81;96670.52;1839259;77;21083;-76
2021/01/16 02:30:07;;;;;;;23.85;13.88;;;;;;;-4.26;75.51;96668.47;1827666;77;21111;-76
2021/01/16 02:32:34;;;;;;;20.90;14.83;;;;;;;-4.29;75.75;96666.11;1836785;77;21335;-77
2021/01/16 02:35:04;;;;;;;30.72;17.17;;;;;;;-4.22;75.94;96667.43;1834750;76;21376;-77
2021/01/16 02:37:58;;;;;;;25.68;15.93;;;;;;;-4.19;75.55;96670.24;1802015;77;21300;-76
2021/01/16 02:40:33;;;;;;;25.92;14.98;;;;;;;-4.43;75.28;96671.93;1824332;77;21069;-77
2021/01/16 02:43:17;;;;;;;23.73;15.60;;;;;;;-4.43;75.82;96668.58;1839088;77;21124;-78
2021/01/16 02:45:50;;;;;;;23.27;15.53;;;;;;;-4.44;75.75;96669.03;1836683;77;21086;-77
2021/01/16 02:48:26;;;;;;;27.48;15.93;;;;;;;-4.42;75.89;96665.95;1838960;77;21118;-77
2021/01/16 02:50:53;;;;;;;27.37;15.40;;;;;;;-4.37;75.88;96662.73;1803838;78;21101;-78
2021/01/16 02:53:23;;;;;;;24.55;15.50;;;;;;;-4.34;75.71;96665.55;1829669;77;21103;-78
2021/01/16 02:55:53;;;;;;;26.52;15.80;;;;;;;-4.37;75.61;96657.66;1826924;77;21342;-78
2021/01/16 02:58:19;;;;;;;28.85;15.58;;;;;;;-4.41;75.60;96656.17;1824419;77;21063;-78
2021/01/16 03:00:46;;;;;;;28.95;16.32;;;;;;;-4.42;75.67;96658.34;1830212;77;21419;-78
2021/01/16 03:03:13;;;;;;;25.65;15.68;;;;;;;-4.38;75.68;96656.48;1823810;77;21300;-78
2021/01/16 03:05:39;;;;;;;25.92;15.03;;;;;;;-4.36;75.71;96656.77;1842472;77;21089;-78
2021/01/16 03:08:06;;;;;;;28.50;16.95;;;;;;;-4.36;75.75;96652.14;1832277;77;21070;-78
2021/01/16 03:10:34;;;;;;;29.55;16.35;;;;;;;-4.34;75.72;96653.69;1821747;77;21075;-77
2021/01/16 03:13:00;;;;;;;30.30;18.30;;;;;;;-4.32;75.82;96650.61;1803364;77;21883;-78
2021/01/16 03:15:27;;;;;;;27.45;17.70;;;;;;;-4.26;75.81;96651.53;1822223;77;21241;-78
2021/01/16 03:17:57;;;;;;;32.28;18.57;;;;;;;-4.22;75.73;96653.92;1829403;77;21104;-78
2021/01/16 03:20:30;;;;;;;30.57;19.77;;;;;;;-4.22;75.66;96648.40;1815707;77;21113;-78
2021/01/16 03:22:59;;;;;;;31.35;18.85;;;;;;;-4.21;75.81;96646.68;1816029;77;21337;-78
2021/01/16 03:25:27;;;;;;;29.57;18.50;;;;;;;-4.19;75.71;96655.02;1830550;77;21070;-78
2021/01/16 03:27:53;;;;;;;33.58;19.17;;;;;;;-4.20;75.73;96654.66;1829491;77;21241;-78
2021/01/16 03:30:20;;;;;;;33.90;19.50;;;;;;;-4.24;75.80;96658.61;1820879;77;21138;-79
2021/01/16 03:32:48;;;;;;;30.02;18.92;;;;;;;-4.19;75.77;96657.11;1822902;77;21118;-78
2021/01/16 03:37:49;;;;;;;34.65;19.73;;;;;;;-4.15;75.63;96660.28;1805212;78;23078;-77
2021/01/16 03:40:16;;;;;;;33.10;19.52;;;;;;;-4.20;75.74;96661.00;1770997;79;21343;-76
2021/01/16 03:42:43;;;;;;;32.55;21.00;;;;;;;-4.20;75.77;96666.07;1744467;79;21122;-76
2021/01/16 03:45:12;;;;;;;23.15;14.30;;;;;;;-4.20;75.70;96666.89;1783405;79;21121;-76
2021/01/16 03:47:38;;;;;;;25.35;14.20;;;;;;;-4.29;75.26;96665.66;1780283;79;21257;-76
2021/01/16 03:50:07;;;;;;;28.42;16.45;;;;;;;-4.40;75.39;96674.30;1781919;79;21128;-76
2021/01/16 03:52:38;;;;;;;24.72;13.90;;;;;;;-4.41;75.65;96677.73;1770051;79;21090;-76
2021/01/16 03:55:06;;;;;;;22.57;12.13;;;;;;;-4.38;75.69;96677.59;1778226;79;21109;-76
2021/01/16 03:57:32;;;;;;;24.77;14.13;;;;;;;-4.35;75.69;96677.42;1779402;79;21236;-76
2021/01/16 03:59:58;;;;;;;12.95;10.95;;;;;;;-4.31;75.75;96681.42;1769615;79;21130;-76
2021/01/16 04:02:24;;;;;;;20.12;13.62;;;;;;;-4.30;75.53;96676.71;1771563;79;21145;-76
2021/01/16 04:04:50;;;;;;;21.48;14.15;;;;;;;-4.33;75.64;96674.80;1778253;79;21106;-76
2021/01/16 04:07:17;;;;;;;15.38;11.05;;;;;;;-4.32;75.56;96671.36;1766886;79;21135;-76
2021/01/16 04:09:44;;;;;;;19.67;11.30;;;;;;;-4.38;75.35;96674.23;1764014;79;21318;-76
2021/01/16 04:12:10;;;;;;;16.02;10.43;;;;;;;-4.48;75.31;96668.83;1769239;79;21526;-76
2021/01/16 04:14:36;;;;;;;16.67;10.80;;;;;;;-4.50;75.61;96664.30;1773738;79;21125;-76
2021/01/16 04:17:08;;;;;;;17.62;11.50;;;;;;;-4.52;75.60;96667.37;1768199;79;21349;-77
2021/01/16 04:19:34;;;;;;;17.27;11.22;;;;;;;-4.57;75.52;96660.44;1778457;79;21105;-76
2021/01/16 04:22:01;;;;;;;15.13;9.60;;;;;;;-4.60;75.73;96663.14;1763998;79;21080;-76
2021/01/16 04:24:27;;;;;;;16.52;11.50;;;;;;;-4.58;75.92;96663.88;1770634;79;21406;-76
2021/01/16 04:26:53;;;;;;;19.15;10.65;;;;;;;-4.57;75.84;96668.05;1765858;79;21249;-76
2021/01/16 04:29:19;;;;;;;16.32;12.65;;;;;;;-4.52;76.02;96666.55;1767049;79;21112;-76
2021/01/16 04:31:47;;;;;;;24.82;14.18;;;;;;;-4.48;76.08;96667.56;1772003;79;21078;-77
2021/01/16 04:34:13;;;;;;;18.52;12.25;;;;;;;-4.43;76.12;96673.20;1770394;79;21081;-76
2021/01/16 04:36:39;;;;;;;16.57;12.63;;;;;;;-4.38;76.00;96678.05;1764426;79;21164;-76
2021/01/16 04:39:05;;;;;;;17.25;13.18;;;;;;;-4.37;76.10;96674.16;1752034;80;21092;-76
2021/01/16 04:41:32;;;;;;;18.87;13.55;;;;;;;-4.33;76.09;96678.16;1759936;80;21113;-76
2021/01/16 04:43:59;;;;;;;21.62;14.20;;;;;;;-4.34;76.05;96679.50;1762630;80;21151;-76
2021/01/16 04:46:25;;;;;;;18.73;13.62;;;;;;;-4.35;76.21;96674.06;1756769;80;21395;-76
2021/01/16 04:49:02;;;;;;;23.42;15.38;;;;;;;-4.36;76.34;96684.66;1740009;80;21118;-76
2021/01/16 04:51:35;;;;;;;20.00;13.32;;;;;;;-4.37;76.29;96683.48;1756623;80;21121;-76
2021/01/16 04:54:03;;;;;;;24.23;13.80;;;;;;;-4.34;76.53;96685.84;1756570;80;21136;-76
2021/01/16 04:56:30;;;;;;;23.25;14.23;;;;;;;-4.32;76.51;96683.59;1759970;80;21138;-76
2021/01/16 04:58:56;;;;;;;21.02;15.25;;;;;;;-4.30;76.51;96683.50;1748241;80;21412;-76
2021/01/16 05:01:23;;;;;;;22.52;14.60;;;;;;;-4.38;76.37;96688.19;1769204;80;21686;-76
2021/01/16 05:03:50;;;;;;;22.65;15.15;;;;;;;-4.37;76.50;96684.30;1765998;80;21332;-76
2021/01/16 05:06:16;;;;;;;23.35;14.33;;;;;;;-4.37;76.63;96684.30;1756897;80;21537;-76
2021/01/16 05:08:43;;;;;;;18.37;13.15;;;;;;;-4.41;76.65;96687.88;1756192;80;21116;-76
2021/01/16 05:11:27;;;;;;;24.35;15.28;;;;;;;-4.48;76.62;96690.39;1760753;80;21111;-76
2021/01/16 05:14:16;;;;;;;19.62;13.68;;;;;;;-4.52;76.74;96688.11;1762217;80;21526;-76
2021/01/16 05:16:57;;;;;;;20.72;14.40;;;;;;;-4.55;76.91;96688.64;1757368;80;21156;-76
2021/01/16 05:19:28;;;;;;;21.05;15.55;;;;;;;-4.62;76.94;96682.70;1755827;80;21114;-76
2021/01/16 05:21:54;;;;;;;21.73;15.30;;;;;;;-4.64;77.20;96689.12;1762897;80;21339;-76
2021/01/16 05:24:21;;;;;;;22.10;15.38;;;;;;;-4.62;77.27;96684.78;1743677;80;21117;-76
2021/01/16 05:27:04;;;;;;;21.85;16.35;;;;;;;-4.68;77.41;96684.30;1742296;80;21089;-76
2021/01/16 05:29:32;;;;;;;23.80;15.10;;;;;;;-4.70;77.54;96683.12;1761745;80;21101;-77
2021/01/16 05:32:01;;;;;;;22.10;15.80;;;;;;;-4.65;77.64;96681.59;1759543;80;21244;-76
2021/01/16 05:34:29;;;;;;;20.10;14.35;;;;;;;-4.60;77.73;96677.91;1761383;80;21150;-76
2021/01/16 05:36:55;;;;;;;22.40;16.73;;;;;;;-4.62;77.65;96677.63;1759834;80;21152;-76
2021/01/16 05:39:25;;;;;;;24.50;16.07;;;;;;;-4.65;77.69;96681.59;1765742;80;21126;-76
2021/01/16 05:42:04;;;;;;;29.98;18.90;;;;;;;-4.58;77.92;96679.09;1711591;83;21089;-76
2021/01/16 05:44:31;;;;;;;27.42;19.57;;;;;;;-4.63;77.87;96679.80;1753537;80;21091;-76
2021/01/16 05:46:57;;;;;;;24.52;17.27;;;;;;;-4.65;77.98;96673.98;1760489;80;21115;-76
2021/01/16 05:49:24;;;;;;;27.52;17.30;;;;;;;-4.58;78.09;96674.84;1764432;80;21809;-76
2021/01/16 05:51:51;;;;;;;28.47;18.85;;;;;;;-4.52;77.97;96676.70;1752095;80;21148;-76
2021/01/16 05:54:18;;;;;;;29.52;18.00;;;;;;;-4.49;78.02;96673.54;1758295;80;21755;-77
2021/01/16 05:56:45;;;;;;;25.70;16.75;;;;;;;-4.44;77.99;96677.91;1764243;80;21084;-76
2021/01/16 05:59:14;;;;;;;31.27;18.52;;;;;;;-4.39;78.00;96677.67;1764315;80;21204;-76
2021/01/16 06:01:42;;;;;;;31.17;20.37;;;;;;;-4.40;78.02;96679.37;1764897;80;21091;-76
2021/01/16 06:04:10;;;;;;;29.98;20.30;;;;;;;-4.41;77.93;96679.00;1771754;80;21205;-77
2021/01/16 06:06:36;;;;;;;31.93;19.52;;;;;;;-4.41;77.90;96678.19;1739693;80;21117;-77
2021/01/16 06:09:03;;;;;;;32.78;20.88;;;;;;;-4.40;77.95;96674.30;1740197;80;21468;-76
2021/01/16 06:11:36;;;;;;;25.48;16.93;;;;;;;-4.38;78.02;96680.13;1760590;80;21128;-76
2021/01/16 06:14:02;;;;;;;30.57;20.72;;;;;;;-4.35;77.99;96679.95;1770809;80;21233;-76
2021/01/16 06:16:28;;;;;;;35.20;21.82;;;;;;;-4.46;77.80;96679.71;1758771;80;21527;-76
2021/01/16 06:18:56;;;;;;;32.40;19.60;;;;;;;-4.45;78.06;96672.92;1762989;80;21121;-76
2021/01/16 06:21:25;;;;;;;32.93;19.62;;;;;;;-4.38;78.20;96676.77;1774373;80;21139;-76
2021/01/16 06:23:54;;;;;;;31.15;20.05;;;;;;;-4.36;78.03;96678.77;1762607;80;21116;-76
2021/01/16 06:26:20;;;;;;;35.55;22.42;;;;;;;-4.37;78.00;96674.61;1770248;80;21527;-76
2021/01/16 06:29:01;;;;;;;36.40;21.75;;;;;;;-4.38;78.08;96678.05;1773996;80;21113;-76
2021/01/16 06:31:33;;;;;;;32.08;19.77;;;;;;;-4.34;78.19;96682.05;1772829;80;21464;-76
2021/01/16 06:34:05;;;;;;;147.77;83.60;;;;;;;-4.38;78.16;96685.20;1760220;80;21241;-75
2021/01/16 06:36:34;;;;;;;;;;;;;;;-4.42;78.14;96682.44;1765866;80;21722;-76
2021/01/16 06:39:05;;;;;;;55.28;35.48;;;;;;;-4.41;78.26;96684.08;1777214;80;20191;-76
2021/01/16 06:41:34;;;;;;;44.10;27.25;;;;;;;-4.36;78.33;96680.86;1761538;80;21150;-75
2021/01/16 06:44:00;;;;;;;41.55;29.60;;;;;;;-4.41;78.25;96681.98;1774397;80;21334;-75
2021/01/16 06:46:43;;;;;;;33.35;22.17;;;;;;;-4.38;78.44;96681.40;1714194;82;21121;-75
2021/01/16 06:49:22;;;;;;;33.73;24.77;;;;;;;-4.40;78.27;96683.17;1767549;80;21128;-75
2021/01/16 06:51:52;;;;;;;37.73;23.98;;;;;;;-4.38;78.29;96687.74;1772797;80;21232;-76
2021/01/16 06:54:25;;;;;;;29.72;18.73;;;;;;;-4.34;78.32;96687.12;1775647;80;21142;-76
2021/01/16 06:57:07;;;;;;;32.35;22.25;;;;;;;-4.42;78.22;96681.62;1709689;83;21279;-76
2021/01/16 06:59:41;;;;;;;;;;;;;;;-4.44;78.24;96688.50;1764400;80;21095;-77
2021/01/16 07:02:33;;;;;;;29.23;18.27;;;;;;;-4.42;78.41;96687.52;1768007;80;20667;-77
2021/01/16 07:05:04;;;;;;;29.37;18.98;;;;;;;-4.40;78.39;96688.70;1759979;80;21118;-77
2021/01/16 07:07:37;;;;;;;43.38;30.23;;;;;;;-4.44;78.32;96689.31;1771750;80;21227;-76
2021/01/16 07:10:17;;;;;;;45.33;32.35;;;;;;;-4.44;78.33;96691.04;1768353;80;21232;-76
2021/01/16 07:12:51;;;;;;;50.12;29.35;;;;;;;-4.44;78.38;96694.39;1730448;82;21087;-77
2021/01/16 07:15:18;;;;;;;61.30;33.15;;;;;;;-4.45;78.29;96689.41;1766487;80;21229;-76
2021/01/16 07:17:45;;;;;;;83.90;44.10;;;;;;;-4.44;78.26;96691.04;1764135;80;21090;-76
2021/01/16 07:20:11;;;;;;;200.55;121.13;;;;;;;-4.45;78.24;96692.76;1760696;80;21396;-76
2021/01/16 07:22:43;;;;;;;39.33;26.02;;;;;;;-4.44;78.32;96693.13;1771502;80;21110;-76
2021/01/16 07:25:11;;;;;;;48.02;31.70;;;;;;;-4.49;78.22;96687.48;1769040;80;21459;-75
2021/01/16 07:27:41;;;;;;;65.25;34.67;;;;;;;-4.50;78.27;96693.46;1748001;80;21131;-75
2021/01/16 07:30:12;;;;;;;66.12;40.03;;;;;;;-4.52;78.26;96696.53;1767497;80;21107;-75
2021/01/16 07:32:45;;;;;;;66.00;38.13;;;;;;;-4.44;78.43;96692.30;1774789;80;21328;-75
2021/01/16 07:35:19;;;;;;;35.70;25.05;;;;;;;-4.36;78.46;96692.73;1770857;80;21093;-75
2021/01/16 07:37:49;;;;;;;30.27;20.77;;;;;;;-4.30;78.34;96694.92;1782241;80;21136;-77
2021/01/16 07:40:20;;;;;;;26.05;18.32;;;;;;;-4.35;78.10;96691.38;1780243;80;21249;-77
2021/01/16 07:43:00;;;;;;;41.95;27.55;;;;;;;-4.38;78.20;96690.73;1770342;80;21241;-77
2021/01/16 07:45:34;;;;;;;37.23;22.90;;;;;;;-4.32;78.29;96690.39;1722173;82;21134;-77
2021/01/16 07:48:06;;;;;;;49.63;27.27;;;;;;;-4.32;78.14;96690.39;1768087;80;21618;-77
2021/01/16 07:50:36;;;;;;;36.38;23.67;;;;;;;-4.34;78.23;96685.84;1769426;80;21476;-75
2021/01/16 07:53:06;;;;;;;37.85;23.62;;;;;;;-4.38;78.21;96686.92;1780560;80;21129;-75
2021/01/16 07:55:40;;;;;;;39.80;23.10;;;;;;;-4.37;78.12;96684.30;1780384;80;21108;-75
2021/01/16 07:58:35;;;;;;;33.38;22.15;;;;;;;-4.39;78.20;96689.91;1774477;80;21351;-75
2021/01/16 08:01:42;;;;;;;46.53;27.93;;;;;;;-4.41;78.21;96691.69;1768190;80;21122;-75
2021/01/16 08:04:29;;;;;;;47.45;28.32;;;;;;;-4.37;78.37;96689.38;1769567;80;21131;-75
2021/01/16 08:07:11;;;;;;;41.55;26.87;;;;;;;-4.34;78.31;96685.84;1721025;82;21115;-75
2021/01/16 08:09:52;;;;;;;42.65;25.82;;;;;;;-4.30;78.33;96680.97;1721655;83;21086;-75
2021/01/16 08:12:24;;;;;;;45.15;27.25;;;;;;;-4.18;78.35;96690.91;1722643;83;21232;-75
2021/01/16 08:14:50;;;;;;;38.60;24.05;;;;;;;-4.11;78.21;96683.31;1717129;83;21124;-76
2021/01/16 08:17:23;;;;;;;45.73;25.52;;;;;;;-4.10;78.01;96680.69;1695627;83;21463;-76
2021/01/16 08:20:07;;;;;;;36.68;24.20;;;;;;;-4.08;77.99;96676.34;1720644;83;21352;-75
2021/01/16 08:22:41;;;;;;;39.73;23.95;;;;;;;-4.04;77.93;96682.09;1705853;83;21146;-75
2021/01/16 08:25:10;;;;;;;30.70;20.82;;;;;;;-4.02;77.76;96687.44;1730524;82;21132;-75
2021/01/16 08:27:38;;;;;;;42.48;25.43;;;;;;;-4.00;77.83;96689.44;1687774;83;21099;-75
2021/01/16 08:30:13;;;;;;;33.48;21.40;;;;;;;-3.94;77.73;96690.36;1676522;83;21297;-75
2021/01/16 08:33:04;;;;;;;33.88;21.90;;;;;;;-3.96;77.57;96688.81;1765327;80;21098;-76
2021/01/16 08:35:41;;;;;;;71.12;33.60;;;;;;;-4.03;77.55;96690.88;1757420;80;21121;-76
2021/01/16 08:38:21;;;;;;;33.42;20.45;;;;;;;-4.03;77.44;96693.87;1753999;80;21277;-75
2021/01/16 08:41:16;;;;;;;43.63;22.80;;;;;;;-4.02;77.71;96694.23;1745003;80;21245;-78
2021/01/16 08:43:44;;;;;;;28.47;18.80;;;;;;;-3.90;77.71;96693.56;1736228;82;21145;-78
2021/01/16 08:46:25;;;;;;;47.93;27.80;;;;;;;-3.92;77.45;96695.34;1716023;82;21102;-79
2021/01/16 08:49:08;;;;;;;29.27;19.00;;;;;;;-3.88;77.58;96695.56;1743927;82;21241;-78
2021/01/16 08:51:46;;;;;;;30.62;20.37;;;;;;;-3.85;77.24;96699.64;1721289;82;21146;-78
2021/01/16 08:54:22;;;;;;;40.25;20.32;;;;;;;-3.88;77.29;96696.02;1698666;82;21389;-78
2021/01/16 08:56:57;;;;;;;34.35;20.52;;;;;;;-3.85;77.36;96701.73;1717467;82;21190;-77
2021/01/16 08:59:32;;;;;;;25.90;17.77;;;;;;;-3.89;77.10;96709.16;1718086;82;21277;-77
2021/01/16 09:02:12;;;;;;;39.00;24.45;;;;;;;-3.89;77.10;96709.16;1715639;82;21755;-78
2021/01/16 09:04:40;;;;;;;33.30;19.82;;;;;;;-3.87;77.21;96706.53;1721584;82;21245;-79
2021/01/16 09:07:20;;;;;;;32.17;20.82;;;;;;;-3.82;77.25;96706.63;1741563;82;21140;-78
2021/01/16 09:10:00;;;;;;;36.53;22.77;;;;;;;-3.82;77.05;96711.71;1714509;82;21146;-77
2021/01/16 09:12:36;;;;;;;33.83;20.90;;;;;;;-3.77;77.12;96705.10;1725976;82;21173;-78
2021/01/16 09:15:26;;;;;;;40.08;25.23;;;;;;;-3.68;77.27;96713.03;1717412;82;21141;-77
2021/01/16 09:18:14;;;;;;;40.90;24.52;;;;;;;-3.63;77.03;96708.95;1637545;86;21452;-76
2021/01/16 09:20:44;;;;;;;48.58;27.58;;;;;;;-3.57;76.91;96706.54;1716933;82;21248;-76
2021/01/16 09:23:27;;;;;;;38.58;24.90;;;;;;;-3.52;76.79;96712.16;1712566;82;21143;-76
2021/01/16 09:26:01;;;;;;;38.75;23.80;;;;;;;-3.49;76.80;96703.09;1721371;82;21232;-79
2021/01/16 09:28:53;;;;;;;39.67;24.87;;;;;;;-3.48;76.58;96710.63;1719090;81;21129;-79
2021/01/16 09:31:40;;;;;;;49.83;28.52;;;;;;;-3.45;76.36;96700.73;1703768;82;21926;-76
2021/01/16 09:34:12;;;;;;;43.78;26.12;;;;;;;-3.42;76.72;96696.32;1729556;82;21119;-76
2021/01/16 09:36:44;;;;;;;37.25;24.65;;;;;;;-3.37;76.56;96701.95;1721698;82;21674;-76
2021/01/16 09:39:21;;;;;;;48.75;29.32;;;;;;;-3.28;76.66;96696.77;1719086;82;21122;-76
2021/01/16 09:41:51;;;;;;;43.23;25.15;;;;;;;-3.26;76.47;96703.84;1722950;82;21167;-76
2021/01/16 09:44:47;;;;;;;36.20;22.20;;;;;;;-3.24;76.14;96700.78;1710053;82;21066;-76
2021/01/16 09:47:31;;;;;;;36.75;23.42;;;;;;;-3.36;75.97;96704.84;1703877;82;21154;-77
2021/01/16 09:50:05;;;;;;;44.27;26.70;;;;;;;-3.42;76.14;96691.66;1718562;82;21143;-78
2021/01/16 09:52:32;;;;;;;49.77;30.17;;;;;;;-3.34;76.53;96689.05;1719252;82;22039;-78
2021/01/16 09:54:59;;;;;;;57.10;31.73;;;;;;;-3.20;76.70;96687.44;1710178;84;21244;-77
2021/01/16 09:57:40;;;;;;;42.15;25.35;;;;;;;-3.14;76.46;96689.16;1715039;82;21139;-77
2021/01/16 10:00:29;;;;;;;40.20;26.15;;;;;;;-3.10;76.01;96683.43;1705632;82;21118;-77
2021/01/16 10:03:02;;;;;;;43.80;28.45;;;;;;;-3.12;76.17;96682.71;1709986;83;21316;-77
2021/01/16 10:05:40;;;;;;;46.77;30.52;;;;;;;-2.99;76.51;96681.08;1709354;83;21247;-77
2021/01/16 10:08:07;;;;;;;57.15;35.43;;;;;;;-2.91;76.26;96664.11;1710466;83;21254;-77
2021/01/16 10:10:43;;;;;;;68.37;41.13;;;;;;;-2.81;76.11;96667.72;1697547;84;21132;-77
2021/01/16 10:13:11;;;;;;;45.05;28.50;;;;;;;-2.85;75.65;96670.09;1705867;84;21141;-77
2021/01/16 10:15:45;;;;;;;41.90;27.10;;;;;;;-2.97;75.63;96660.19;1708391;82;21266;-77
2021/01/16 10:18:17;;;;;;;40.60;25.57;;;;;;;-3.09;75.66;96660.95;1683781;84;21126;-77
2021/01/16 10:20:43;;;;;;;32.75;19.92;;;;;;;-3.19;75.86;96656.85;1678724;83;21126;-78
2021/01/16 10:23:09;;;;;;;34.73;20.43;;;;;;;-3.28;75.79;96656.11;1709905;83;21324;-77
2021/01/16 10:25:43;;;;;;;53.83;29.55;;;;;;;-3.40;75.69;96651.77;1691376;83;21127;-77
2021/01/16 10:28:26;;;;;;;44.65;24.32;;;;;;;-3.44;76.11;96652.38;1707751;83;21111;-77
2021/01/16 10:30:58;;;;;;;;;;;;;;;-3.47;75.96;96650.02;1709685;82;21167;-77
2021/01/16 10:33:24;;;;;;;43.10;23.85;;;;;;;-3.51;76.03;96648.57;1699565;82;20244;-77
2021/01/16 10:35:51;;;;;;;55.70;30.32;;;;;;;-3.55;75.99;96643.77;1703318;82;22107;-77
2021/01/16 10:38:48;;;;;;;50.65;29.32;;;;;;;-3.49;76.14;96647.20;1678407;84;21168;-77
2021/01/16 10:41:19;;;;;;;68.95;36.85;;;;;;;-3.45;76.13;96644.39;1690796;83;21139;-77
2021/01/16 10:44:06;;;;;;;36.63;20.75;;;;;;;-3.36;76.08;96643.87;1796337;78;22921;-77
2021/01/16 10:46:44;;;;;;;33.48;21.52;;;;;;;-3.42;75.81;96645.51;1794860;78;21207;-77
2021/01/16 10:49:22;;;;;;;57.35;33.95;;;;;;;-3.48;75.97;96638.22;1793832;79;21104;-77
2021/01/16 10:51:59;;;;;;;31.70;19.85;;;;;;;-3.40;76.15;96646.69;1813500;78;21113;-77
2021/01/16 10:54:28;;;;;;;36.63;22.00;;;;;;;-3.46;75.74;96632.59;1794980;80;21093;-77
2021/01/16 10:57:04;;;;;;;27.48;17.67;;;;;;;-3.43;76.02;96631.14;1793458;79;21117;-77
2021/01/16 10:59:31;;;;;;;26.45;17.90;;;;;;;-3.40;75.83;96626.36;1793163;79;21110;-77
2021/01/16 11:01:59;;;;;;;313.82;144.47;;;;;;;-3.44;75.62;96630.78;1792699;79;21141;-77
2021/01/16 11:04:28;;;;;;;67.30;32.93;;;;;;;-3.47;75.76;96631.42;1780852;80;21117;-77
2021/01/16 11:06:58;;;;;;;29.15;18.60;;;;;;;-3.48;75.66;96627.25;1779050;79;22095;-76
2021/01/16 11:09:36;;;;;;;29.25;19.25;;;;;;;-3.48;75.68;96620.44;1790325;79;21117;-76
2021/01/16 11:12:06;;;;;;;27.80;19.00;;;;;;;-3.52;75.61;96627.06;1787275;80;21370;-76
2021/01/16 11:14:35;;;;;;;245.07;97.37;;;;;;;-3.59;75.58;96615.61;1785085;79;21154;-76
2021/01/16 11:17:06;;;;;;;46.75;25.88;;;;;;;-3.64;76.02;96620.52;1796912;79;21239;-76
2021/01/16 11:19:44;;;;;;;87.02;35.70;;;;;;;-3.63;75.82;96614.53;1803405;78;21121;-76
2021/01/16 11:22:12;;;;;;;28.57;18.80;;;;;;;-3.69;75.79;96614.90;1779977;78;21113;-76
2021/01/16 11:24:59;;;;;;;34.60;20.70;;;;;;;-3.70;75.88;96618.80;1791564;80;21120;-76
2021/01/16 11:30:06;;;;;;;45.58;26.27;;;;;;;-3.60;76.21;96613.98;1815452;77;23232;-75
2021/01/16 11:32:37;;;;;;;;;;;;;;;-3.61;76.33;96610.63;1785480;78;21107;-76
2021/01/16 11:35:12;;;;;;;41.35;25.50;;;;;;;-3.54;76.44;96609.84;1770103;78;20161;-75
2021/01/16 11:37:50;;;;;;;69.22;33.98;;;;;;;-3.52;76.28;96606.30;1803562;78;21498;-76
2021/01/16 11:40:39;;;;;;;39.08;25.25;;;;;;;-3.59;75.95;96603.73;1717120;81;21126;-76
2021/01/16 11:43:07;;;;;;;39.27;28.45;;;;;;;-3.66;76.05;96599.48;1759665;80;21105;-76
2021/01/16 11:45:34;;;;;;;39.67;25.57;;;;;;;-3.66;75.93;96601.20;1750586;80;21224;-76